sensor_id;sensor_type;location;lat;lon;timestamp;P1;durP1;ratioP1;P2;durP2;ratioP2
28547;SDS011;68292;49.600;8.746;2023-05-28T00:00:45;4.35;;;3.50;;
28547;SDS011;68292;49.600;8.746;2023-05-28T00:03:14;5.30;;;3.63;;
28547;SDS011;68292;49.600;8.746;2023-05-28T00:05:44;5.65;;;3.90;;
28547;SDS011;68292;49.600;8.746;2023-05-28T00:08:12;4.07;;;3.60;;
28547;SDS011;68292;49.600;8.746;2023-05-28T00:10:41;6.63;;;3.33;;
28547;SDS011;68292;49.600;8.746;2023-05-28T00:13:09;4.05;;;3.25;;
28547;SDS011;68292;49.600;8.746;2023-05-28T00:15:38;4.20;;;3.67;;
28547;SDS011;68292;49.600;8.746;2023-05-28T00:18:06;6.55;;;3.67;;
28547;SDS011;68292;49.600;8.746;2023-05-28T00:20:39;4.05;;;3.45;;
28547;SDS011;68292;49.600;8.746;2023-05-28T00:23:07;5.53;;;4.00;;
28547;SDS011;68292;49.600;8.746;2023-05-28T00:25:35;6.38;;;3.58;;
28547;SDS011;68292;49.600;8.746;2023-05-28T00:28:03;6.90;;;4.10;;
28547;SDS011;68292;49.600;8.746;2023-05-28T00:30:32;8.10;;;4.20;;
28547;SDS011;68292;49.600;8.746;2023-05-28T00:33:00;5.15;;;3.30;;
28547;SDS011;68292;49.600;8.746;2023-05-28T00:35:28;7.03;;;4.00;;
28547;SDS011;68292;49.600;8.746;2023-05-28T00:37:58;7.57;;;3.85;;
28547;SDS011;68292;49.600;8.746;2023-05-28T00:40:26;5.30;;;3.42;;
28547;SDS011;68292;49.600;8.746;2023-05-28T00:42:54;5.93;;;4.05;;
28547;SDS011;68292;49.600;8.746;2023-05-28T00:45:22;4.38;;;3.42;;
28547;SDS011;68292;49.600;8.746;2023-05-28T00:47:51;4.88;;;3.50;;
28547;SDS011;68292;49.600;8.746;2023-05-28T00:50:19;9.68;;;4.03;;
28547;SDS011;68292;49.600;8.746;2023-05-28T00:52:48;6.18;;;4.07;;
28547;SDS011;68292;49.600;8.746;2023-05-28T00:55:19;5.03;;;3.78;;
28547;SDS011;68292;49.600;8.746;2023-05-28T00:57:48;6.22;;;3.85;;
28547;SDS011;68292;49.600;8.746;2023-05-28T01:00:20;4.20;;;3.75;;
28547;SDS011;68292;49.600;8.746;2023-05-28T01:02:50;5.25;;;3.63;;
28547;SDS011;68292;49.600;8.746;2023-05-28T01:05:18;6.78;;;3.90;;
28547;SDS011;68292;49.600;8.746;2023-05-28T01:07:46;4.63;;;3.53;;
28547;SDS011;68292;49.600;8.746;2023-05-28T01:10:15;4.45;;;3.70;;
28547;SDS011;68292;49.600;8.746;2023-05-28T01:12:44;5.78;;;4.07;;
28547;SDS011;68292;49.600;8.746;2023-05-28T01:15:13;4.07;;;3.70;;
28547;SDS011;68292;49.600;8.746;2023-05-28T01:17:41;6.25;;;3.90;;
28547;SDS011;68292;49.600;8.746;2023-05-28T01:20:11;4.85;;;3.53;;
28547;SDS011;68292;49.600;8.746;2023-05-28T01:22:46;4.65;;;3.90;;
28547;SDS011;68292;49.600;8.746;2023-05-28T01:25:24;7.43;;;3.90;;
28547;SDS011;68292;49.600;8.746;2023-05-28T01:27:52;4.97;;;3.70;;
28547;SDS011;68292;49.600;8.746;2023-05-28T01:30:21;7.55;;;3.83;;
28547;SDS011;68292;49.600;8.746;2023-05-28T01:32:49;5.50;;;3.95;;
28547;SDS011;68292;49.600;8.746;2023-05-28T01:35:17;6.63;;;3.97;;
28547;SDS011;68292;49.600;8.746;2023-05-28T01:37:47;7.35;;;3.95;;
28547;SDS011;68292;49.600;8.746;2023-05-28T01:40:18;4.90;;;3.80;;
28547;SDS011;68292;49.600;8.746;2023-05-28T01:42:49;5.68;;;3.90;;
28547;SDS011;68292;49.600;8.746;2023-05-28T01:45:21;4.35;;;3.90;;
28547;SDS011;68292;49.600;8.746;2023-05-28T01:48:09;6.68;;;4.22;;
28547;SDS011;68292;49.600;8.746;2023-05-28T01:50:39;5.05;;;3.88;;
28547;SDS011;68292;49.600;8.746;2023-05-28T01:53:07;5.75;;;3.72;;
28547;SDS011;68292;49.600;8.746;2023-05-28T01:55:36;5.53;;;3.90;;
28547;SDS011;68292;49.600;8.746;2023-05-28T01:58:05;5.25;;;3.40;;
28547;SDS011;68292;49.600;8.746;2023-05-28T02:00:35;6.18;;;3.80;;
28547;SDS011;68292;49.600;8.746;2023-05-28T02:03:14;5.63;;;3.85;;
28547;SDS011;68292;49.600;8.746;2023-05-28T02:05:43;4.78;;;4.00;;
28547;SDS011;68292;49.600;8.746;2023-05-28T02:08:11;8.13;;;4.65;;
28547;SDS011;68292;49.600;8.746;2023-05-28T02:10:39;4.88;;;3.75;;
28547;SDS011;68292;49.600;8.746;2023-05-28T02:13:09;7.35;;;3.83;;
28547;SDS011;68292;49.600;8.746;2023-05-28T02:15:37;5.88;;;3.13;;
28547;SDS011;68292;49.600;8.746;2023-05-28T02:18:05;5.97;;;3.72;;
28547;SDS011;68292;49.600;8.746;2023-05-28T02:20:36;5.55;;;3.70;;
28547;SDS011;68292;49.600;8.746;2023-05-28T02:23:04;5.22;;;3.90;;
28547;SDS011;68292;49.600;8.746;2023-05-28T02:25:32;7.22;;;3.58;;
28547;SDS011;68292;49.600;8.746;2023-05-28T02:28:02;6.63;;;4.15;;
28547;SDS011;68292;49.600;8.746;2023-05-28T02:30:32;6.50;;;4.00;;
28547;SDS011;68292;49.600;8.746;2023-05-28T02:33:00;6.60;;;3.78;;
28547;SDS011;68292;49.600;8.746;2023-05-28T02:35:29;5.60;;;3.17;;
28547;SDS011;68292;49.600;8.746;2023-05-28T02:37:58;5.10;;;4.20;;
28547;SDS011;68292;49.600;8.746;2023-05-28T02:40:26;7.18;;;3.85;;
28547;SDS011;68292;49.600;8.746;2023-05-28T02:42:54;5.50;;;4.07;;
28547;SDS011;68292;49.600;8.746;2023-05-28T02:45:22;6.65;;;4.13;;
28547;SDS011;68292;49.600;8.746;2023-05-28T02:47:52;5.32;;;3.88;;
28547;SDS011;68292;49.600;8.746;2023-05-28T02:50:21;7.07;;;4.25;;
28547;SDS011;68292;49.600;8.746;2023-05-28T02:53:04;6.25;;;4.00;;
28547;SDS011;68292;49.600;8.746;2023-05-28T02:55:32;6.47;;;3.92;;
28547;SDS011;68292;49.600;8.746;2023-05-28T02:58:01;4.95;;;3.40;;
28547;SDS011;68292;49.600;8.746;2023-05-28T03:00:29;4.32;;;3.92;;
28547;SDS011;68292;49.600;8.746;2023-05-28T03:02:59;6.05;;;3.83;;
28547;SDS011;68292;49.600;8.746;2023-05-28T03:05:27;5.18;;;3.97;;
28547;SDS011;68292;49.600;8.746;2023-05-28T03:07:57;4.07;;;3.67;;
28547;SDS011;68292;49.600;8.746;2023-05-28T03:10:26;5.80;;;3.85;;
28547;SDS011;68292;49.600;8.746;2023-05-28T03:12:54;4.47;;;3.78;;
28547;SDS011;68292;49.600;8.746;2023-05-28T03:15:22;5.45;;;4.10;;
28547;SDS011;68292;49.600;8.746;2023-05-28T03:17:53;4.68;;;3.70;;
28547;SDS011;68292;49.600;8.746;2023-05-28T03:20:25;4.90;;;3.47;;
28547;SDS011;68292;49.600;8.746;2023-05-28T03:22:54;6.85;;;4.13;;
28547;SDS011;68292;49.600;8.746;2023-05-28T03:25:24;6.68;;;3.92;;
28547;SDS011;68292;49.600;8.746;2023-05-28T03:27:53;6.30;;;4.20;;
28547;SDS011;68292;49.600;8.746;2023-05-28T03:30:30;5.07;;;3.70;;
28547;SDS011;68292;49.600;8.746;2023-05-28T03:32:58;4.60;;;3.75;;
28547;SDS011;68292;49.600;8.746;2023-05-28T03:35:28;5.45;;;3.88;;
28547;SDS011;68292;49.600;8.746;2023-05-28T03:37:56;4.60;;;3.35;;
28547;SDS011;68292;49.600;8.746;2023-05-28T03:40:24;5.35;;;3.97;;
28547;SDS011;68292;49.600;8.746;2023-05-28T03:42:52;5.13;;;4.18;;
28547;SDS011;68292;49.600;8.746;2023-05-28T03:45:21;5.10;;;3.88;;
28547;SDS011;68292;49.600;8.746;2023-05-28T03:47:49;4.82;;;4.05;;
28547;SDS011;68292;49.600;8.746;2023-05-28T03:50:18;4.70;;;3.97;;
28547;SDS011;68292;49.600;8.746;2023-05-28T03:52:48;4.72;;;3.90;;
28547;SDS011;68292;49.600;8.746;2023-05-28T03:55:17;5.00;;;3.58;;
28547;SDS011;68292;49.600;8.746;2023-05-28T03:57:46;5.53;;;3.92;;
28547;SDS011;68292;49.600;8.746;2023-05-28T04:00:15;6.03;;;3.92;;
28547;SDS011;68292;49.600;8.746;2023-05-28T04:02:43;7.07;;;4.25;;
28547;SDS011;68292;49.600;8.746;2023-05-28T04:05:14;5.68;;;3.60;;
28547;SDS011;68292;49.600;8.746;2023-05-28T04:07:42;6.40;;;4.10;;
28547;SDS011;68292;49.600;8.746;2023-05-28T04:10:13;3.95;;;3.53;;
28547;SDS011;68292;49.600;8.746;2023-05-28T04:12:41;4.97;;;4.50;;
28547;SDS011;68292;49.600;8.746;2023-05-28T04:15:09;5.35;;;3.88;;
28547;SDS011;68292;49.600;8.746;2023-05-28T04:17:38;5.70;;;4.65;;
28547;SDS011;68292;49.600;8.746;2023-05-28T04:20:08;5.43;;;3.85;;
28547;SDS011;68292;49.600;8.746;2023-05-28T04:22:38;4.88;;;3.88;;
28547;SDS011;68292;49.600;8.746;2023-05-28T04:25:07;4.78;;;3.47;;
28547;SDS011;68292;49.600;8.746;2023-05-28T04:27:37;7.13;;;4.20;;
28547;SDS011;68292;49.600;8.746;2023-05-28T04:30:07;6.25;;;4.00;;
28547;SDS011;68292;49.600;8.746;2023-05-28T04:32:37;4.78;;;3.97;;
28547;SDS011;68292;49.600;8.746;2023-05-28T04:35:06;4.53;;;3.65;;
28547;SDS011;68292;49.600;8.746;2023-05-28T04:37:35;5.82;;;3.97;;
28547;SDS011;68292;49.600;8.746;2023-05-28T04:40:06;5.45;;;4.22;;
28547;SDS011;68292;49.600;8.746;2023-05-28T04:42:39;4.80;;;3.80;;
28547;SDS011;68292;49.600;8.746;2023-05-28T04:45:09;5.13;;;3.67;;
28547;SDS011;68292;49.600;8.746;2023-05-28T04:47:42;6.43;;;3.67;;
28547;SDS011;68292;49.600;8.746;2023-05-28T04:50:10;4.90;;;3.70;;
28547;SDS011;68292;49.600;8.746;2023-05-28T04:52:38;6.55;;;4.25;;
28547;SDS011;68292;49.600;8.746;2023-05-28T04:55:06;5.10;;;3.65;;
28547;SDS011;68292;49.600;8.746;2023-05-28T04:57:36;5.25;;;3.92;;
28547;SDS011;68292;49.600;8.746;2023-05-28T05:00:08;4.57;;;3.70;;
28547;SDS011;68292;49.600;8.746;2023-05-28T05:02:40;5.53;;;4.40;;
28547;SDS011;68292;49.600;8.746;2023-05-28T05:05:09;7.18;;;3.97;;
28547;SDS011;68292;49.600;8.746;2023-05-28T05:07:38;5.10;;;3.70;;
28547;SDS011;68292;49.600;8.746;2023-05-28T05:10:07;4.82;;;3.78;;
28547;SDS011;68292;49.600;8.746;2023-05-28T05:12:37;5.32;;;4.15;;
28547;SDS011;68292;49.600;8.746;2023-05-28T05:15:08;7.00;;;4.22;;
28547;SDS011;68292;49.600;8.746;2023-05-28T05:17:36;6.60;;;4.18;;
28547;SDS011;68292;49.600;8.746;2023-05-28T05:20:06;4.15;;;3.65;;
28547;SDS011;68292;49.600;8.746;2023-05-28T05:22:36;5.50;;;3.70;;
28547;SDS011;68292;49.600;8.746;2023-05-28T05:25:04;4.82;;;3.80;;
28547;SDS011;68292;49.600;8.746;2023-05-28T05:27:34;5.60;;;3.80;;
28547;SDS011;68292;49.600;8.746;2023-05-28T05:30:03;7.82;;;4.18;;
28547;SDS011;68292;49.600;8.746;2023-05-28T05:32:34;6.32;;;4.07;;
28547;SDS011;68292;49.600;8.746;2023-05-28T05:35:03;6.38;;;4.00;;
28547;SDS011;68292;49.600;8.746;2023-05-28T05:37:58;8.38;;;3.80;;
28547;SDS011;68292;49.600;8.746;2023-05-28T05:40:47;7.90;;;3.70;;
28547;SDS011;68292;49.600;8.746;2023-05-28T05:43:33;4.57;;;3.92;;
28547;SDS011;68292;49.600;8.746;2023-05-28T05:46:01;4.75;;;4.25;;
28547;SDS011;68292;49.600;8.746;2023-05-28T05:48:31;6.57;;;4.32;;
28547;SDS011;68292;49.600;8.746;2023-05-28T05:50:59;6.35;;;4.00;;
28547;SDS011;68292;49.600;8.746;2023-05-28T05:53:29;8.82;;;4.80;;
28547;SDS011;68292;49.600;8.746;2023-05-28T05:55:57;7.10;;;4.60;;
28547;SDS011;68292;49.600;8.746;2023-05-28T05:58:25;4.97;;;4.45;;
28547;SDS011;68292;49.600;8.746;2023-05-28T06:00:57;4.68;;;3.97;;
28547;SDS011;68292;49.600;8.746;2023-05-28T06:03:26;6.30;;;4.50;;
28547;SDS011;68292;49.600;8.746;2023-05-28T06:06:14;4.03;;;3.60;;
28547;SDS011;68292;49.600;8.746;2023-05-28T06:09:11;6.38;;;4.55;;
28547;SDS011;68292;49.600;8.746;2023-05-28T06:11:46;5.80;;;4.05;;
28547;SDS011;68292;49.600;8.746;2023-05-28T06:14:15;4.68;;;4.07;;
28547;SDS011;68292;49.600;8.746;2023-05-28T06:16:43;5.60;;;4.35;;
28547;SDS011;68292;49.600;8.746;2023-05-28T06:19:12;6.80;;;4.68;;
28547;SDS011;68292;49.600;8.746;2023-05-28T06:21:42;6.93;;;4.15;;
28547;SDS011;68292;49.600;8.746;2023-05-28T06:24:10;5.40;;;3.55;;
28547;SDS011;68292;49.600;8.746;2023-05-28T06:26:40;6.85;;;3.83;;
28547;SDS011;68292;49.600;8.746;2023-05-28T06:29:08;6.20;;;3.95;;
28547;SDS011;68292;49.600;8.746;2023-05-28T06:31:36;5.95;;;4.45;;
28547;SDS011;68292;49.600;8.746;2023-05-28T06:34:06;6.78;;;4.35;;
28547;SDS011;68292;49.600;8.746;2023-05-28T06:36:35;5.88;;;4.30;;
28547;SDS011;68292;49.600;8.746;2023-05-28T06:39:04;5.45;;;4.10;;
28547;SDS011;68292;49.600;8.746;2023-05-28T06:41:33;5.88;;;4.05;;
28547;SDS011;68292;49.600;8.746;2023-05-28T06:44:03;8.38;;;3.80;;
28547;SDS011;68292;49.600;8.746;2023-05-28T06:46:42;5.22;;;4.32;;
28547;SDS011;68292;49.600;8.746;2023-05-28T06:49:12;5.55;;;4.07;;
28547;SDS011;68292;49.600;8.746;2023-05-28T06:51:41;9.38;;;4.32;;
28547;SDS011;68292;49.600;8.746;2023-05-28T06:54:11;6.18;;;4.53;;
28547;SDS011;68292;49.600;8.746;2023-05-28T06:56:39;4.90;;;3.92;;
28547;SDS011;68292;49.600;8.746;2023-05-28T06:59:26;7.28;;;4.22;;
28547;SDS011;68292;49.600;8.746;2023-05-28T07:02:13;6.72;;;4.03;;
28547;SDS011;68292;49.600;8.746;2023-05-28T07:04:55;5.90;;;4.10;;
28547;SDS011;68292;49.600;8.746;2023-05-28T07:07:28;5.63;;;4.00;;
28547;SDS011;68292;49.600;8.746;2023-05-28T07:09:57;8.25;;;5.07;;
28547;SDS011;68292;49.600;8.746;2023-05-28T07:12:28;8.02;;;4.47;;
28547;SDS011;68292;49.600;8.746;2023-05-28T07:14:57;6.15;;;4.32;;
28547;SDS011;68292;49.600;8.746;2023-05-28T07:17:27;5.75;;;4.20;;
28547;SDS011;68292;49.600;8.746;2023-05-28T07:19:56;7.03;;;4.88;;
28547;SDS011;68292;49.600;8.746;2023-05-28T07:22:44;6.50;;;4.20;;
28547;SDS011;68292;49.600;8.746;2023-05-28T07:25:14;7.30;;;4.75;;
28547;SDS011;68292;49.600;8.746;2023-05-28T07:27:42;5.55;;;4.07;;
28547;SDS011;68292;49.600;8.746;2023-05-28T07:30:14;4.65;;;4.10;;
28547;SDS011;68292;49.600;8.746;2023-05-28T07:32:44;6.32;;;4.13;;
28547;SDS011;68292;49.600;8.746;2023-05-28T07:35:13;6.85;;;3.90;;
28547;SDS011;68292;49.600;8.746;2023-05-28T07:37:42;4.97;;;4.05;;
28547;SDS011;68292;49.600;8.746;2023-05-28T07:40:10;7.10;;;4.35;;
28547;SDS011;68292;49.600;8.746;2023-05-28T07:42:41;7.05;;;4.40;;
28547;SDS011;68292;49.600;8.746;2023-05-28T07:45:09;6.00;;;4.35;;
28547;SDS011;68292;49.600;8.746;2023-05-28T07:47:38;5.45;;;4.05;;
28547;SDS011;68292;49.600;8.746;2023-05-28T07:50:22;5.45;;;4.30;;
28547;SDS011;68292;49.600;8.746;2023-05-28T07:53:03;4.88;;;4.18;;
28547;SDS011;68292;49.600;8.746;2023-05-28T07:55:32;7.60;;;4.55;;
28547;SDS011;68292;49.600;8.746;2023-05-28T07:58:03;4.97;;;4.10;;
28547;SDS011;68292;49.600;8.746;2023-05-28T08:00:32;8.55;;;4.60;;
28547;SDS011;68292;49.600;8.746;2023-05-28T08:03:04;5.80;;;4.35;;
28547;SDS011;68292;49.600;8.746;2023-05-28T08:05:37;6.60;;;5.00;;
28547;SDS011;68292;49.600;8.746;2023-05-28T08:08:06;6.32;;;4.82;;
28547;SDS011;68292;49.600;8.746;2023-05-28T08:10:36;6.22;;;4.45;;
28547;SDS011;68292;49.600;8.746;2023-05-28T08:13:06;6.07;;;4.32;;
28547;SDS011;68292;49.600;8.746;2023-05-28T08:15:35;8.52;;;4.53;;
28547;SDS011;68292;49.600;8.746;2023-05-28T08:18:07;6.25;;;4.63;;
28547;SDS011;68292;49.600;8.746;2023-05-28T08:20:35;5.88;;;4.45;;
28547;SDS011;68292;49.600;8.746;2023-05-28T08:23:12;5.75;;;4.28;;
28547;SDS011;68292;49.600;8.746;2023-05-28T08:25:41;5.15;;;3.85;;
28547;SDS011;68292;49.600;8.746;2023-05-28T08:28:18;6.75;;;4.53;;
28547;SDS011;68292;49.600;8.746;2023-05-28T08:30:47;4.65;;;3.78;;
28547;SDS011;68292;49.600;8.746;2023-05-28T08:33:24;6.38;;;4.40;;
28547;SDS011;68292;49.600;8.746;2023-05-28T08:35:53;6.45;;;4.53;;
28547;SDS011;68292;49.600;8.746;2023-05-28T08:38:23;9.13;;;4.38;;
28547;SDS011;68292;49.600;8.746;2023-05-28T08:40:53;4.97;;;4.47;;
28547;SDS011;68292;49.600;8.746;2023-05-28T08:43:24;8.38;;;5.03;;
28547;SDS011;68292;49.600;8.746;2023-05-28T08:45:55;6.35;;;4.18;;
28547;SDS011;68292;49.600;8.746;2023-05-28T08:48:34;4.88;;;4.13;;
28547;SDS011;68292;49.600;8.746;2023-05-28T08:51:04;4.53;;;4.00;;
28547;SDS011;68292;49.600;8.746;2023-05-28T08:53:36;4.93;;;3.95;;
28547;SDS011;68292;49.600;8.746;2023-05-28T08:56:08;4.47;;;3.83;;
28547;SDS011;68292;49.600;8.746;2023-05-28T08:58:39;8.05;;;4.43;;
28547;SDS011;68292;49.600;8.746;2023-05-28T09:01:08;5.28;;;4.32;;
28547;SDS011;68292;49.600;8.746;2023-05-28T09:03:45;8.27;;;4.05;;
28547;SDS011;68292;49.600;8.746;2023-05-28T09:06:21;5.80;;;4.25;;
28547;SDS011;68292;49.600;8.746;2023-05-28T09:08:53;5.78;;;4.68;;
28547;SDS011;68292;49.600;8.746;2023-05-28T09:11:37;4.25;;;3.85;;
28547;SDS011;68292;49.600;8.746;2023-05-28T09:14:09;8.25;;;4.65;;
28547;SDS011;68292;49.600;8.746;2023-05-28T09:16:40;5.60;;;3.92;;
28547;SDS011;68292;49.600;8.746;2023-05-28T09:19:16;5.25;;;3.80;;
28547;SDS011;68292;49.600;8.746;2023-05-28T09:21:53;4.88;;;4.20;;
28547;SDS011;68292;49.600;8.746;2023-05-28T09:24:28;6.20;;;4.13;;
28547;SDS011;68292;49.600;8.746;2023-05-28T09:27:23;5.28;;;3.70;;
28547;SDS011;68292;49.600;8.746;2023-05-28T09:29:54;4.80;;;4.40;;
28547;SDS011;68292;49.600;8.746;2023-05-28T09:32:22;5.53;;;4.03;;
28547;SDS011;68292;49.600;8.746;2023-05-28T09:34:50;6.55;;;4.38;;
28547;SDS011;68292;49.600;8.746;2023-05-28T09:37:19;9.98;;;4.55;;
28547;SDS011;68292;49.600;8.746;2023-05-28T09:39:52;4.80;;;4.25;;
28547;SDS011;68292;49.600;8.746;2023-05-28T09:42:31;8.60;;;4.85;;
28547;SDS011;68292;49.600;8.746;2023-05-28T09:45:02;5.90;;;4.35;;
28547;SDS011;68292;49.600;8.746;2023-05-28T09:47:31;6.28;;;4.50;;
28547;SDS011;68292;49.600;8.746;2023-05-28T09:49:59;4.72;;;4.30;;
28547;SDS011;68292;49.600;8.746;2023-05-28T09:52:28;5.05;;;4.00;;
28547;SDS011;68292;49.600;8.746;2023-05-28T09:54:57;5.95;;;4.88;;
28547;SDS011;68292;49.600;8.746;2023-05-28T09:57:26;6.07;;;4.35;;
28547;SDS011;68292;49.600;8.746;2023-05-28T09:59:57;5.43;;;4.13;;
28547;SDS011;68292;49.600;8.746;2023-05-28T10:02:41;4.45;;;4.05;;
28547;SDS011;68292;49.600;8.746;2023-05-28T10:05:16;5.78;;;4.70;;
28547;SDS011;68292;49.600;8.746;2023-05-28T10:07:48;6.43;;;4.28;;
28547;SDS011;68292;49.600;8.746;2023-05-28T10:10:20;4.45;;;3.95;;
28547;SDS011;68292;49.600;8.746;2023-05-28T10:12:49;8.10;;;4.40;;
28547;SDS011;68292;49.600;8.746;2023-05-28T10:15:21;5.25;;;4.75;;
28547;SDS011;68292;49.600;8.746;2023-05-28T10:17:49;8.98;;;4.80;;
28547;SDS011;68292;49.600;8.746;2023-05-28T10:20:18;6.63;;;4.05;;
28547;SDS011;68292;49.600;8.746;2023-05-28T10:22:46;5.63;;;4.38;;
28547;SDS011;68292;49.600;8.746;2023-05-28T10:25:15;5.07;;;3.70;;
28547;SDS011;68292;49.600;8.746;2023-05-28T10:27:45;6.13;;;4.13;;
28547;SDS011;68292;49.600;8.746;2023-05-28T10:33:08;4.25;;;3.85;;
28547;SDS011;68292;49.600;8.746;2023-05-28T10:35:49;5.88;;;4.10;;
28547;SDS011;68292;49.600;8.746;2023-05-28T10:38:20;6.65;;;4.22;;
28547;SDS011;68292;49.600;8.746;2023-05-28T10:40:49;6.47;;;4.88;;
28547;SDS011;68292;49.600;8.746;2023-05-28T10:46:08;5.38;;;4.43;;
28547;SDS011;68292;49.600;8.746;2023-05-28T10:48:39;6.20;;;4.35;;
28547;SDS011;68292;49.600;8.746;2023-05-28T10:51:07;5.47;;;4.07;;
28547;SDS011;68292;49.600;8.746;2023-05-28T10:53:37;4.45;;;3.47;;
28547;SDS011;68292;49.600;8.746;2023-05-28T10:56:07;4.63;;;3.97;;
28547;SDS011;68292;49.600;8.746;2023-05-28T10:58:36;6.72;;;3.92;;
28547;SDS011;68292;49.600;8.746;2023-05-28T11:01:05;4.03;;;3.47;;
28547;SDS011;68292;49.600;8.746;2023-05-28T11:03:52;4.85;;;3.95;;
28547;SDS011;68292;49.600;8.746;2023-05-28T11:06:24;5.65;;;4.25;;
28547;SDS011;68292;49.600;8.746;2023-05-28T11:08:53;4.80;;;3.90;;
28547;SDS011;68292;49.600;8.746;2023-05-28T11:11:24;4.53;;;4.13;;
28547;SDS011;68292;49.600;8.746;2023-05-28T11:13:54;5.43;;;4.18;;
28547;SDS011;68292;49.600;8.746;2023-05-28T11:16:22;5.47;;;4.63;;
28547;SDS011;68292;49.600;8.746;2023-05-28T11:19:01;6.55;;;4.28;;
28547;SDS011;68292;49.600;8.746;2023-05-28T11:21:30;4.88;;;4.03;;
28547;SDS011;68292;49.600;8.746;2023-05-28T11:24:00;5.70;;;4.45;;
28547;SDS011;68292;49.600;8.746;2023-05-28T11:26:30;5.78;;;4.38;;
28547;SDS011;68292;49.600;8.746;2023-05-28T11:28:59;7.07;;;4.50;;
28547;SDS011;68292;49.600;8.746;2023-05-28T11:31:29;6.90;;;4.45;;
28547;SDS011;68292;49.600;8.746;2023-05-28T11:33:57;7.57;;;4.47;;
28547;SDS011;68292;49.600;8.746;2023-05-28T11:36:27;6.25;;;4.55;;
28547;SDS011;68292;49.600;8.746;2023-05-28T11:39:00;7.43;;;4.65;;
28547;SDS011;68292;49.600;8.746;2023-05-28T11:41:29;5.10;;;4.45;;
28547;SDS011;68292;49.600;8.746;2023-05-28T11:43:58;5.68;;;4.35;;
28547;SDS011;68292;49.600;8.746;2023-05-28T11:46:26;5.38;;;3.83;;
28547;SDS011;68292;49.600;8.746;2023-05-28T11:48:55;16.05;;;4.15;;
28547;SDS011;68292;49.600;8.746;2023-05-28T11:51:23;7.07;;;4.57;;
28547;SDS011;68292;49.600;8.746;2023-05-28T11:53:53;4.43;;;3.92;;
28547;SDS011;68292;49.600;8.746;2023-05-28T11:56:22;5.90;;;4.90;;
28547;SDS011;68292;49.600;8.746;2023-05-28T11:58:53;7.85;;;4.97;;
28547;SDS011;68292;49.600;8.746;2023-05-28T12:01:21;5.97;;;4.47;;
28547;SDS011;68292;49.600;8.746;2023-05-28T12:03:50;5.18;;;4.28;;
28547;SDS011;68292;49.600;8.746;2023-05-28T12:06:18;6.60;;;4.50;;
28547;SDS011;68292;49.600;8.746;2023-05-28T12:09:06;5.40;;;4.47;;
28547;SDS011;68292;49.600;8.746;2023-05-28T12:11:34;8.20;;;5.07;;
28547;SDS011;68292;49.600;8.746;2023-05-28T12:14:10;6.63;;;4.55;;
28547;SDS011;68292;49.600;8.746;2023-05-28T12:16:42;6.45;;;4.22;;
28547;SDS011;68292;49.600;8.746;2023-05-28T12:19:13;6.47;;;4.32;;
28547;SDS011;68292;49.600;8.746;2023-05-28T12:21:43;7.80;;;5.13;;
28547;SDS011;68292;49.600;8.746;2023-05-28T12:24:13;6.22;;;4.90;;
28547;SDS011;68292;49.600;8.746;2023-05-28T12:26:42;6.80;;;5.45;;
28547;SDS011;68292;49.600;8.746;2023-05-28T12:29:10;5.15;;;4.65;;
28547;SDS011;68292;49.600;8.746;2023-05-28T12:31:38;4.90;;;4.35;;
28547;SDS011;68292;49.600;8.746;2023-05-28T12:34:06;6.53;;;4.55;;
28547;SDS011;68292;49.600;8.746;2023-05-28T12:36:34;4.75;;;4.05;;
28547;SDS011;68292;49.600;8.746;2023-05-28T12:39:03;4.68;;;3.78;;
28547;SDS011;68292;49.600;8.746;2023-05-28T12:41:32;4.25;;;3.67;;
28547;SDS011;68292;49.600;8.746;2023-05-28T12:44:00;6.20;;;4.32;;
28547;SDS011;68292;49.600;8.746;2023-05-28T12:46:29;5.28;;;4.50;;
28547;SDS011;68292;49.600;8.746;2023-05-28T12:48:57;4.95;;;4.38;;
28547;SDS011;68292;49.600;8.746;2023-05-28T12:51:25;5.82;;;4.15;;
28547;SDS011;68292;49.600;8.746;2023-05-28T12:53:54;5.85;;;4.57;;
28547;SDS011;68292;49.600;8.746;2023-05-28T12:56:22;5.80;;;5.00;;
28547;SDS011;68292;49.600;8.746;2023-05-28T12:58:52;7.50;;;4.82;;
28547;SDS011;68292;49.600;8.746;2023-05-28T13:01:21;6.93;;;5.35;;
28547;SDS011;68292;49.600;8.746;2023-05-28T13:03:50;6.35;;;5.30;;
28547;SDS011;68292;49.600;8.746;2023-05-28T13:06:18;5.68;;;5.05;;
28547;SDS011;68292;49.600;8.746;2023-05-28T13:08:46;6.05;;;5.15;;
28547;SDS011;68292;49.600;8.746;2023-05-28T13:11:14;5.95;;;5.32;;
28547;SDS011;68292;49.600;8.746;2023-05-28T13:13:43;9.38;;;5.13;;
28547;SDS011;68292;49.600;8.746;2023-05-28T13:16:12;8.35;;;4.90;;
28547;SDS011;68292;49.600;8.746;2023-05-28T13:18:40;6.03;;;5.45;;
28547;SDS011;68292;49.600;8.746;2023-05-28T13:21:11;6.18;;;4.85;;
28547;SDS011;68292;49.600;8.746;2023-05-28T13:23:39;5.30;;;4.28;;
28547;SDS011;68292;49.600;8.746;2023-05-28T13:26:07;5.50;;;4.88;;
28547;SDS011;68292;49.600;8.746;2023-05-28T13:28:35;5.80;;;4.88;;
28547;SDS011;68292;49.600;8.746;2023-05-28T13:31:04;6.15;;;4.32;;
28547;SDS011;68292;49.600;8.746;2023-05-28T13:33:33;6.53;;;4.80;;
28547;SDS011;68292;49.600;8.746;2023-05-28T13:36:01;8.38;;;5.07;;
28547;SDS011;68292;49.600;8.746;2023-05-28T13:38:30;11.65;;;5.40;;
28547;SDS011;68292;49.600;8.746;2023-05-28T13:40:59;6.95;;;5.15;;
28547;SDS011;68292;49.600;8.746;2023-05-28T13:43:29;6.60;;;5.15;;
28547;SDS011;68292;49.600;8.746;2023-05-28T13:45:57;7.20;;;5.20;;
28547;SDS011;68292;49.600;8.746;2023-05-28T13:48:26;6.78;;;5.78;;
28547;SDS011;68292;49.600;8.746;2023-05-28T13:50:56;7.07;;;5.00;;
28547;SDS011;68292;49.600;8.746;2023-05-28T13:53:25;6.50;;;5.00;;
28547;SDS011;68292;49.600;8.746;2023-05-28T13:55:54;6.25;;;4.70;;
28547;SDS011;68292;49.600;8.746;2023-05-28T13:58:23;5.47;;;5.00;;
28547;SDS011;68292;49.600;8.746;2023-05-28T14:00:51;7.60;;;5.68;;
28547;SDS011;68292;49.600;8.746;2023-05-28T14:03:20;6.03;;;4.80;;
28547;SDS011;68292;49.600;8.746;2023-05-28T14:05:48;7.05;;;5.10;;
28547;SDS011;68292;49.600;8.746;2023-05-28T14:08:18;6.25;;;4.72;;
28547;SDS011;68292;49.600;8.746;2023-05-28T14:10:46;7.32;;;5.25;;
28547;SDS011;68292;49.600;8.746;2023-05-28T14:13:15;9.77;;;5.45;;
28547;SDS011;68292;49.600;8.746;2023-05-28T14:15:43;6.57;;;5.20;;
28547;SDS011;68292;49.600;8.746;2023-05-28T14:18:12;8.93;;;5.53;;
28547;SDS011;68292;49.600;8.746;2023-05-28T14:20:40;6.53;;;5.25;;
28547;SDS011;68292;49.600;8.746;2023-05-28T14:23:08;6.63;;;4.40;;
28547;SDS011;68292;49.600;8.746;2023-05-28T14:25:37;7.25;;;4.85;;
28547;SDS011;68292;49.600;8.746;2023-05-28T14:28:05;9.23;;;5.65;;
28547;SDS011;68292;49.600;8.746;2023-05-28T14:30:38;7.07;;;5.22;;
28547;SDS011;68292;49.600;8.746;2023-05-28T14:33:06;7.18;;;5.20;;
28547;SDS011;68292;49.600;8.746;2023-05-28T14:35:34;8.48;;;5.32;;
28547;SDS011;68292;49.600;8.746;2023-05-28T14:38:02;6.63;;;5.63;;
28547;SDS011;68292;49.600;8.746;2023-05-28T14:40:30;6.97;;;5.10;;
28547;SDS011;68292;49.600;8.746;2023-05-28T14:43:00;8.80;;;5.13;;
28547;SDS011;68292;49.600;8.746;2023-05-28T14:45:28;7.78;;;5.00;;
28547;SDS011;68292;49.600;8.746;2023-05-28T14:47:58;7.70;;;4.95;;
28547;SDS011;68292;49.600;8.746;2023-05-28T14:50:27;6.97;;;4.65;;
28547;SDS011;68292;49.600;8.746;2023-05-28T14:52:56;9.30;;;5.00;;
28547;SDS011;68292;49.600;8.746;2023-05-28T14:55:23;10.93;;;5.72;;
28547;SDS011;68292;49.600;8.746;2023-05-28T14:57:52;9.30;;;5.10;;
28547;SDS011;68292;49.600;8.746;2023-05-28T15:00:21;6.53;;;5.38;;
28547;SDS011;68292;49.600;8.746;2023-05-28T15:02:49;5.18;;;4.65;;
28547;SDS011;68292;49.600;8.746;2023-05-28T15:05:18;6.20;;;5.40;;
28547;SDS011;68292;49.600;8.746;2023-05-28T15:07:46;7.10;;;5.15;;
28547;SDS011;68292;49.600;8.746;2023-05-28T15:10:14;6.88;;;5.30;;
28547;SDS011;68292;49.600;8.746;2023-05-28T15:12:43;20.10;;;5.97;;